Time;durP1;ratioP1;P1;durP2;ratioP2;P2;SDS_P1;SDS_P2;PMS_P1;PMS_P2;Temp;Humidity;BMP_temperature;BMP_pressure;BME280_temperature;BME280_humidity;BME280_pressure;Samples;Min_cycle;Max_cycle;Signal;HPM_P1;HPM_P2
2023/09/01 00:00:19;;;;;;;14.70;2.70;;;;;;;-144.73;100.00;54522.63;5027058;28;20025;-75
2023/09/01 00:02:44;;;;;;;6.53;2.70;;;;;;;-144.73;100.00;54522.63;5025327;28;20717;-74
2023/09/01 00:05:10;;;;;;;10.90;2.67;;;;;;;-144.73;100.00;54514.44;5017951;28;20112;-74
2023/09/01 00:07:35;;;;;;;18.63;2.50;;;;;;;-144.73;100.00;54510.31;5025857;28;20036;-74
2023/09/01 00:10:01;;;;;;;8.05;2.88;;;;;;;-144.73;100.00;54477.47;5034015;28;20033;-74
2023/09/01 00:12:26;;;;;;;10.98;2.90;;;;;;;-144.73;100.00;54522.63;5021025;28;20048;-74
2023/09/01 00:14:52;;;;;;;8.43;2.47;;;;;;;-144.73;100.00;54489.81;5024895;28;20163;-75
2023/09/01 00:17:18;;;;;;;15.50;2.63;;;;;;;-144.73;100.00;54514.44;5014191;28;20032;-75
2023/09/01 00:19:43;;;;;;;14.07;2.75;;;;;;;-144.73;100.00;54547.28;5024758;28;20025;-75
2023/09/01 00:22:08;;;;;;;13.35;2.63;;;;;;;-144.73;100.00;54514.44;5022767;28;20025;-75
2023/09/01 00:24:34;;;;;;;7.40;2.78;;;;;;;-144.73;100.00;54506.22;5023496;28;20029;-74
2023/09/01 00:27:00;;;;;;;13.73;3.20;;;;;;;-144.73;100.00;54518.53;5029297;28;20084;-74
2023/09/01 00:29:26;;;;;;;8.20;3.03;;;;;;;-144.73;100.00;54518.53;5021045;28;20028;-74
2023/09/01 00:31:52;;;;;;;14.60;3.25;;;;;;;-144.73;100.00;54518.53;5022576;28;20036;-74
2023/09/01 00:34:17;;;;;;;15.43;3.25;;;;;;;-144.73;100.00;54493.91;5018385;28;20049;-74
2023/09/01 00:36:43;;;;;;;11.65;3.17;;;;;;;-144.73;100.00;54493.91;5033918;28;20026;-74
2023/09/01 00:39:09;;;;;;;6.78;3.05;;;;;;;-144.73;100.00;54567.81;5014813;28;20021;-73
2023/09/01 00:41:35;;;;;;;11.95;3.30;;;;;;;-144.73;100.00;54514.44;5039882;28;20100;-74
2023/09/01 00:44:00;;;;;;;8.98;3.63;;;;;;;-144.73;100.00;54516.47;5043440;28;20017;-76
2023/09/01 00:46:26;;;;;;;13.90;3.25;;;;;;;-144.73;100.00;54604.75;5041543;28;20041;-74
2023/09/01 00:48:54;;;;;;;10.20;2.80;;;;;;;-144.73;100.00;54495.97;5025298;28;20112;-74
2023/09/01 00:51:19;;;;;;;10.50;3.10;;;;;;;-144.73;100.00;54555.47;5020556;28;20519;-74
2023/09/01 00:53:45;;;;;;;8.82;3.05;;;;;;;-144.73;100.00;54530.84;5029589;28;20027;-74
2023/09/01 00:56:10;;;;;;;8.23;3.13;;;;;;;-144.73;100.00;54514.44;5038631;28;20381;-76
2023/09/01 00:58:36;;;;;;;11.45;2.90;;;;;;;-144.73;100.00;54518.53;5018527;28;20021;-74
2023/09/01 01:01:04;;;;;;;18.27;3.75;;;;;;;-144.73;100.00;54512.38;5020926;28;20040;-74
2023/09/01 01:03:31;;;;;;;15.57;3.65;;;;;;;-144.73;100.00;54522.63;5037821;28;20092;-75
2023/09/01 01:06:11;;;;;;;10.88;3.00;;;;;;;-144.73;100.00;54604.75;5020673;28;20037;-74
2023/09/01 01:08:53;;;;;;;12.38;3.92;;;;;;;-144.73;100.00;54563.69;5030006;28;20507;-75
2023/09/01 01:11:51;;;;;;;11.13;3.85;;;;;;;-144.73;100.00;54547.28;5021963;28;20063;-74
2023/09/01 01:14:27;;;;;;;11.63;3.63;;;;;;;-144.73;100.00;54510.31;5006100;28;20025;-74
2023/09/01 01:16:54;;;;;;;6.28;3.10;;;;;;;-144.73;100.00;54459.00;5028093;28;20048;-75
2023/09/01 01:19:45;;;;;;;15.05;3.60;;;;;;;-144.73;100.00;54539.06;5017451;28;20025;-75
2023/09/01 01:22:11;;;;;;;8.27;3.20;;;;;;;-144.73;100.00;54518.53;5017710;28;20025;-74
2023/09/01 01:24:37;;;;;;;25.45;3.75;;;;;;;-144.73;100.00;54498.00;5037899;28;20141;-75
2023/09/01 01:27:02;;;;;;;12.70;2.90;;;;;;;-144.73;100.00;54539.06;5022626;28;20009;-74
2023/09/01 01:29:28;;;;;;;18.30;3.80;;;;;;;-144.73;100.00;54510.31;5037364;28;20357;-74
2023/09/01 01:31:53;;;;;;;8.98;3.28;;;;;;;-144.73;100.00;54510.31;5034745;28;20026;-75
2023/09/01 01:34:36;;;;;;;9.65;3.78;;;;;;;-144.73;100.00;54530.84;5024901;28;20556;-74
2023/09/01 01:37:14;;;;;;;7.18;3.20;;;;;;;-144.73;100.00;54539.06;5022737;28;20044;-74
2023/09/01 01:39:42;;;;;;;14.45;3.70;;;;;;;-144.73;100.00;54510.31;5017269;28;20036;-74
2023/09/01 01:42:14;;;;;;;14.05;3.20;;;;;;;-144.73;100.00;54510.31;5017831;28;20021;-74
2023/09/01 01:44:43;;;;;;;10.48;3.70;;;;;;;-144.73;100.00;54539.06;5025650;28;20533;-74
2023/09/01 01:47:09;;;;;;;15.45;3.75;;;;;;;-144.73;100.00;54506.22;5021760;28;20025;-74
2023/09/01 01:49:35;;;;;;;9.27;3.33;;;;;;;-144.73;100.00;54539.06;5018401;28;20087;-74
2023/09/01 01:52:00;;;;;;;11.27;3.80;;;;;;;-144.73;100.00;54498.00;5036546;28;20057;-74
2023/09/01 01:54:27;;;;;;;12.80;3.25;;;;;;;-144.73;100.00;54518.53;5021565;28;20029;-74
2023/09/01 01:56:52;;;;;;;15.13;4.10;;;;;;;-144.73;100.00;54506.22;5027118;28;20071;-75
2023/09/01 01:59:17;;;;;;;11.95;3.92;;;;;;;-144.73;100.00;54514.44;5012568;28;20021;-75
2023/09/01 02:01:43;;;;;;;13.40;3.58;;;;;;;-144.73;100.00;54498.00;5020873;28;20021;-75
2023/09/01 02:04:08;;;;;;;15.20;3.17;;;;;;;-144.73;100.00;54522.63;5026612;28;20014;-74
2023/09/01 02:06:33;;;;;;;16.90;4.07;;;;;;;-144.73;100.00;54493.91;5024268;28;20033;-74
2023/09/01 02:08:59;;;;;;;11.60;3.60;;;;;;;-144.73;100.00;54510.31;5020352;28;20381;-74
2023/09/01 02:11:24;;;;;;;16.23;3.88;;;;;;;-144.73;100.00;54493.91;5018185;28;20516;-74
2023/09/01 02:13:49;;;;;;;15.82;4.82;;;;;;;-144.73;100.00;54539.06;5023058;28;20052;-75
2023/09/01 02:16:15;;;;;;;11.50;3.72;;;;;;;-144.73;100.00;54485.69;5020196;28;20101;-75
2023/09/01 02:18:40;;;;;;;14.05;3.78;;;;;;;-144.73;100.00;54551.38;5033793;28;20037;-74
2023/09/01 02:21:06;;;;;;;13.50;3.78;;;;;;;-144.73;100.00;54510.31;5013632;28;20041;-74
2023/09/01 02:23:31;;;;;;;16.98;3.75;;;;;;;-144.73;100.00;54539.06;5028769;28;20055;-74
2023/09/01 02:25:56;;;;;;;18.88;4.40;;;;;;;-144.73;100.00;54530.84;5039875;28;20061;-74
2023/09/01 02:28:22;;;;;;;23.10;4.15;;;;;;;-144.73;100.00;54510.31;5022012;28;20060;-76
2023/09/01 02:30:47;;;;;;;13.32;4.00;;;;;;;-144.73;100.00;54506.22;5018596;28;20040;-74
2023/09/01 02:33:13;;;;;;;16.15;4.88;;;;;;;-144.73;100.00;54543.16;5018530;28;20019;-74
2023/09/01 02:35:44;;;;;;;15.23;4.35;;;;;;;-144.73;100.00;54493.91;5020805;28;20037;-74
2023/09/01 02:38:11;;;;;;;16.42;4.78;;;;;;;-144.73;100.00;54493.91;5028559;28;20036;-74
2023/09/01 02:40:36;;;;;;;15.38;4.43;;;;;;;-144.73;100.00;54520.59;5041794;28;20044;-75
2023/09/01 02:43:03;;;;;;;13.43;3.65;;;;;;;-144.73;100.00;54510.31;5025344;28;20017;-75
2023/09/01 02:45:29;;;;;;;16.17;4.60;;;;;;;-144.73;100.00;54539.06;5024660;28;20455;-74
2023/09/01 02:47:54;;;;;;;14.50;4.15;;;;;;;-144.73;100.00;54518.53;5040137;28;20056;-74
2023/09/01 02:50:19;;;;;;;9.77;4.07;;;;;;;-144.73;100.00;54547.28;5026555;28;20049;-75
2023/09/01 02:52:45;;;;;;;15.70;3.72;;;;;;;-144.73;100.00;54530.84;5023171;28;20104;-74
2023/09/01 02:55:10;;;;;;;11.30;3.25;;;;;;;-144.73;100.00;54514.44;5034635;28;20033;-75
2023/09/01 02:57:36;;;;;;;24.60;4.72;;;;;;;-144.73;100.00;54514.44;5040657;28;20025;-74
2023/09/01 03:00:14;;;;;;;12.50;3.80;;;;;;;-144.73;100.00;54514.44;5019037;28;20453;-74
2023/09/01 03:02:41;;;;;;;13.25;3.72;;;;;;;-144.73;100.00;54567.81;5039116;28;20017;-74
2023/09/01 03:05:08;;;;;;;14.02;5.07;;;;;;;-144.73;100.00;54477.47;5037351;28;20078;-75
2023/09/01 03:07:34;;;;;;;26.77;5.07;;;;;;;-144.73;100.00;54539.06;5023002;28;20106;-74
2023/09/01 03:09:59;;;;;;;12.85;4.40;;;;;;;-144.73;100.00;54510.31;5040869;28;20067;-75
2023/09/01 03:12:25;;;;;;;20.30;5.00;;;;;;;-144.73;100.00;54500.06;5019902;28;20108;-75
2023/09/01 03:14:50;;;;;;;20.08;4.25;;;;;;;-144.73;100.00;54580.13;5032361;28;20029;-75
2023/09/01 03:17:16;;;;;;;22.70;5.32;;;;;;;-144.73;100.00;54543.16;5021737;28;20069;-75
2023/09/01 03:19:41;;;;;;;23.88;4.63;;;;;;;-144.73;100.00;54514.44;5015335;28;20053;-75
2023/09/01 03:22:06;;;;;;;14.98;4.13;;;;;;;-144.73;100.00;54514.44;5022966;28;20021;-75
2023/09/01 03:24:33;;;;;;;15.45;4.13;;;;;;;-144.73;100.00;54518.53;5020305;28;20025;-75
2023/09/01 03:26:58;;;;;;;7.65;3.60;;;;;;;-144.73;100.00;54520.59;5037626;28;20037;-75
2023/09/01 03:29:23;;;;;;;12.05;3.78;;;;;;;-144.73;100.00;54539.06;5022829;28;20029;-75
2023/09/01 03:31:49;;;;;;;22.50;4.40;;;;;;;-144.73;100.00;54604.75;5025161;28;20048;-75
2023/09/01 03:34:14;;;;;;;11.93;4.50;;;;;;;-144.73;100.00;54524.69;5023220;28;20403;-75
2023/09/01 03:36:39;;;;;;;11.32;3.97;;;;;;;-144.73;100.00;54539.06;5037929;28;20036;-75
2023/09/01 03:39:07;;;;;;;14.48;5.43;;;;;;;-144.73;100.00;54498.00;5023556;28;20028;-75
2023/09/01 03:41:35;;;;;;;14.13;4.75;;;;;;;-144.73;100.00;54547.28;5025648;28;20029;-75
2023/09/01 03:44:00;;;;;;;10.25;4.10;;;;;;;-144.73;100.00;54502.13;5020554;28;20026;-75
2023/09/01 03:46:26;;;;;;;9.32;4.45;;;;;;;-144.73;100.00;54524.69;5022843;28;20033;-75
2023/09/01 03:48:51;;;;;;;15.93;4.35;;;;;;;-144.73;100.00;54502.13;5042978;28;20029;-75
2023/09/01 03:51:17;;;;;;;14.90;4.88;;;;;;;-144.73;100.00;54514.44;5036368;28;20026;-75
2023/09/01 03:53:43;;;;;;;16.73;4.32;;;;;;;-144.73;100.00;54543.16;5019400;28;20029;-75
2023/09/01 03:56:12;;;;;;;11.38;4.35;;;;;;;-144.73;100.00;54506.22;5026753;28;20120;-75
2023/09/01 03:58:39;;;;;;;7.47;4.00;;;;;;;-144.73;100.00;54506.22;5020869;28;20049;-75
2023/09/01 04:01:08;;;;;;;9.77;4.13;;;;;;;-144.73;100.00;54518.53;5017498;28;20099;-75
2023/09/01 04:03:35;;;;;;;11.43;4.30;;;;;;;-144.73;100.00;54514.44;5018819;28;20025;-75
2023/09/01 04:06:00;;;;;;;16.92;4.47;;;;;;;-144.73;100.00;54506.22;5018958;28;20033;-75
2023/09/01 04:08:26;;;;;;;17.27;4.68;;;;;;;-144.73;100.00;54547.28;5039469;28;20102;-75
2023/09/01 04:10:51;;;;;;;9.93;4.65;;;;;;;-144.73;100.00;54559.59;5014424;28;20044;-75
2023/09/01 04:13:16;;;;;;;20.10;5.35;;;;;;;-144.73;100.00;54543.16;5025182;28;20049;-75
2023/09/01 04:15:42;;;;;;;13.65;5.35;;;;;;;-144.73;100.00;54514.44;5029007;28;20092;-75
2023/09/01 04:18:08;;;;;;;11.05;5.30;;;;;;;-144.73;100.00;54493.91;5024630;28;20025;-75
2023/09/01 04:20:33;;;;;;;19.40;6.28;;;;;;;-144.73;100.00;54557.53;5023936;28;20591;-74
2023/09/01 04:22:58;;;;;;;12.35;4.85;;;;;;;-144.73;100.00;54543.16;5024459;28;20032;-75
2023/09/01 04:25:24;;;;;;;16.67;5.82;;;;;;;-144.73;100.00;54539.06;5028936;28;20029;-75
2023/09/01 04:27:49;;;;;;;10.75;5.00;;;;;;;-144.73;100.00;54514.44;5018010;28;20032;-75
2023/09/01 04:30:14;;;;;;;19.90;5.93;;;;;;;-144.73;100.00;54514.44;5016945;28;20040;-75
2023/09/01 04:32:43;;;;;;;19.40;5.53;;;;;;;-144.73;100.00;54539.06;5034155;28;20026;-75
2023/09/01 04:35:09;;;;;;;11.05;4.90;;;;;;;-144.73;100.00;54493.91;5018965;28;20492;-75
2023/09/01 04:37:35;;;;;;;17.33;4.75;;;;;;;-144.73;100.00;54512.38;5026864;28;20028;-74
2023/09/01 04:40:01;;;;;;;24.27;5.95;;;;;;;-144.73;100.00;54539.06;5017210;28;20033;-75
2023/09/01 04:42:26;;;;;;;7.43;4.65;;;;;;;-144.73;100.00;54539.06;5038699;28;20036;-75
2023/09/01 04:44:52;;;;;;;15.13;4.60;;;;;;;-144.73;100.00;54539.06;5038219;28;20116;-75
2023/09/01 04:47:17;;;;;;;12.93;5.00;;;;;;;-144.73;100.00;54518.53;5017925;28;20104;-75
2023/09/01 04:49:42;;;;;;;13.90;4.32;;;;;;;-144.73;100.00;54582.16;5038803;28;20036;-74
2023/09/01 04:52:08;;;;;;;16.48;4.40;;;;;;;-144.73;100.00;54510.31;5013511;28;20025;-77
2023/09/01 04:54:34;;;;;;;23.10;5.30;;;;;;;-144.73;100.00;54510.31;5018368;28;20052;-77
2023/09/01 04:57:01;;;;;;;16.13;6.07;;;;;;;-144.73;100.00;54539.06;5019003;28;20074;-77
2023/09/01 04:59:27;;;;;;;14.43;4.22;;;;;;;-144.73;100.00;54563.69;5014524;28;20116;-77
2023/09/01 05:01:53;;;;;;;20.20;4.20;;;;;;;-144.73;100.00;54539.06;5028655;28;20593;-77
2023/09/01 05:04:18;;;;;;;11.20;5.15;;;;;;;-144.73;100.00;54539.06;5022888;28;20025;-76
2023/09/01 05:06:44;;;;;;;21.58;4.43;;;;;;;-144.73;100.00;54518.53;5044375;28;20033;-78
2023/09/01 05:09:09;;;;;;;14.10;4.13;;;;;;;-144.73;100.00;54539.06;5042885;28;20108;-77
2023/09/01 05:11:34;;;;;;;15.52;4.20;;;;;;;-144.73;100.00;54512.38;5023998;28;20033;-77
2023/09/01 05:14:00;;;;;;;13.45;4.03;;;;;;;-144.73;100.00;54510.31;5021941;28;20024;-81
2023/09/01 05:16:25;;;;;;;17.10;3.80;;;;;;;-144.73;100.00;54547.28;5020667;28;20381;-77
2023/09/01 05:18:51;;;;;;;12.05;4.30;;;;;;;-144.73;100.00;54547.28;5022399;28;20040;-77
2023/09/01 05:21:16;;;;;;;17.27;4.13;;;;;;;-144.73;100.00;54522.63;5016178;28;20029;-77
2023/09/01 05:23:43;;;;;;;17.52;4.32;;;;;;;-144.73;100.00;54493.91;5024686;28;20048;-77
2023/09/01 05:26:09;;;;;;;18.52;4.30;;;;;;;-144.73;100.00;54514.44;5025243;28;20029;-77
2023/09/01 05:28:34;;;;;;;15.38;4.13;;;;;;;-144.73;100.00;54518.53;5041395;28;20075;-77
2023/09/01 05:30:59;;;;;;;18.10;5.43;;;;;;;-144.73;100.00;54520.59;5023687;28;20029;-78
2023/09/01 05:33:25;;;;;;;13.25;4.68;;;;;;;-144.73;100.00;54543.16;5035115;28;20029;-77
2023/09/01 05:35:50;;;;;;;11.93;4.70;;;;;;;-144.73;100.00;54506.22;5017413;28;20037;-76
2023/09/01 05:38:16;;;;;;;12.10;3.80;;;;;;;-144.73;100.00;54518.53;5039512;28;20025;-77
2023/09/01 05:40:41;;;;;;;14.38;3.53;;;;;;;-144.73;100.00;54561.63;5023808;28;20067;-79
2023/09/01 05:43:06;;;;;;;16.70;3.67;;;;;;;-144.73;100.00;54530.84;5019707;28;20326;-78
2023/09/01 05:45:32;;;;;;;14.98;3.97;;;;;;;-144.73;100.00;54526.75;5031225;28;20029;-78
2023/09/01 05:47:57;;;;;;;15.02;3.83;;;;;;;-144.73;100.00;54522.63;5026547;28;20028;-82
2023/09/01 05:50:23;;;;;;;17.08;3.58;;;;;;;-144.73;100.00;54551.38;5023506;28;20034;-77
2023/09/01 05:52:48;;;;;;;10.13;3.60;;;;;;;-144.73;100.00;54559.59;5017645;28;20022;-77
2023/09/01 05:55:13;;;;;;;10.88;3.63;;;;;;;-144.73;100.00;54539.06;5020603;28;20029;-77
2023/09/01 05:57:40;;;;;;;14.82;3.00;;;;;;;-144.73;100.00;54491.84;5016360;28;20018;-78
2023/09/01 06:00:07;;;;;;;8.48;2.95;;;;;;;-144.73;100.00;54551.38;5019620;28;20112;-80
2023/09/01 06:02:32;;;;;;;17.27;4.05;;;;;;;-144.73;100.00;54530.84;5026372;28;20014;-79
2023/09/01 06:04:57;;;;;;;14.63;3.72;;;;;;;-144.73;100.00;54528.81;5014816;28;20739;-78
2023/09/01 06:07:23;;;;;;;14.05;3.67;;;;;;;-144.73;100.00;54506.22;5014696;28;20113;-78
2023/09/01 06:09:48;;;;;;;21.60;3.55;;;;;;;-144.73;100.00;54518.53;5012380;28;20489;-78
2023/09/01 06:12:14;;;;;;;12.70;3.60;;;;;;;-144.73;100.00;54555.47;5027414;28;20032;-80
2023/09/01 06:14:40;;;;;;;11.68;3.55;;;;;;;-144.73;100.00;54543.16;5015479;28;20036;-79
2023/09/01 06:17:05;;;;;;;9.63;3.35;;;;;;;-144.73;100.00;54539.06;5022063;28;20025;-78
2023/09/01 06:19:31;;;;;;;16.67;3.70;;;;;;;-144.73;100.00;54493.91;5043572;28;20060;-80
2023/09/01 06:21:56;;;;;;;16.13;3.83;;;;;;;-144.73;100.00;54547.28;5022627;28;20049;-78
2023/09/01 06:24:22;;;;;;;6.00;2.88;;;;;;;-144.73;100.00;54514.44;5018506;28;20033;-78
2023/09/01 06:26:47;;;;;;;9.95;3.78;;;;;;;-144.73;100.00;54506.22;5020405;28;20013;-77
2023/09/01 06:29:12;;;;;;;9.30;2.92;;;;;;;-144.73;100.00;54522.63;5027486;28;20028;-77
2023/09/01 06:31:38;;;;;;;10.23;3.38;;;;;;;-144.73;100.00;54502.13;5038321;28;20061;-77
2023/09/01 06:34:03;;;;;;;13.88;3.08;;;;;;;-144.73;100.00;54500.06;5045759;28;20032;-77
2023/09/01 06:36:29;;;;;;;11.32;3.03;;;;;;;-144.73;100.00;54530.84;5025566;28;20029;-77
2023/09/01 06:38:54;;;;;;;13.23;2.80;;;;;;;-144.73;100.00;54555.47;5022017;28;20053;-77
2023/09/01 06:41:19;;;;;;;10.27;2.53;;;;;;;-144.73;100.00;54502.13;5013876;28;20033;-79
2023/09/01 06:43:45;;;;;;;8.48;3.25;;;;;;;-144.73;100.00;54530.84;5016241;28;20025;-77
2023/09/01 06:46:10;;;;;;;11.23;2.53;;;;;;;-144.73;100.00;54518.53;5035072;28;20381;-71
2023/09/01 06:48:36;;;;;;;14.05;3.97;;;;;;;-144.73;100.00;54547.28;5015495;28;20029;-72
2023/09/01 06:51:01;;;;;;;10.00;3.13;;;;;;;-144.73;100.00;54510.31;5034227;28;20033;-72
2023/09/01 06:53:27;;;;;;;13.77;3.30;;;;;;;-144.73;100.00;54543.16;5034581;28;20025;-71
2023/09/01 06:55:52;;;;;;;10.57;2.75;;;;;;;-144.73;100.00;54502.13;5021473;28;20072;-71
2023/09/01 06:58:18;;;;;;;8.82;2.97;;;;;;;-144.73;100.00;54539.06;5014761;28;20022;-72
2023/09/01 07:00:43;;;;;;;14.63;3.28;;;;;;;-144.73;100.00;54551.38;5014395;28;20040;-74
2023/09/01 07:03:09;;;;;;;8.75;3.20;;;;;;;-144.73;100.00;54502.13;5014905;28;20101;-73
2023/09/01 07:05:34;;;;;;;11.48;2.92;;;;;;;-144.73;100.00;54518.53;5030665;28;20068;-72
2023/09/01 07:08:00;;;;;;;12.75;2.97;;;;;;;-144.73;100.00;54461.06;5050173;28;20025;-72
2023/09/01 07:10:25;;;;;;;12.25;2.75;;;;;;;-144.73;100.00;54518.53;5050067;28;20041;-71
2023/09/01 07:12:50;;;;;;;13.45;3.08;;;;;;;-144.73;100.00;54514.44;5032025;28;20030;-73
2023/09/01 07:15:15;;;;;;;9.13;2.85;;;;;;;-144.73;100.00;54604.75;5014190;28;20174;-72
2023/09/01 07:17:41;;;;;;;16.73;2.78;;;;;;;-144.73;100.00;54549.31;5014488;28;20032;-71
2023/09/01 07:20:07;;;;;;;7.93;2.55;;;;;;;-144.73;100.00;54539.06;5014210;28;20049;-72
2023/09/01 07:22:32;;;;;;;12.05;3.30;;;;;;;-144.73;100.00;54493.91;5032099;28;20034;-71
2023/09/01 07:24:57;;;;;;;11.48;2.60;;;;;;;-144.73;100.00;54539.06;5025062;28;20032;-73
2023/09/01 07:27:23;;;;;;;9.13;2.67;;;;;;;-144.73;100.00;54493.91;5035009;28;20048;-71
2023/09/01 07:29:48;;;;;;;11.43;2.90;;;;;;;-144.73;100.00;54514.44;5015502;28;20026;-71
2023/09/01 07:32:15;;;;;;;4.18;2.22;;;;;;;-144.73;100.00;54506.22;5032161;28;20529;-71
2023/09/01 07:34:40;;;;;;;12.75;2.92;;;;;;;-144.73;100.00;54530.84;5031586;28;20025;-72
2023/09/01 07:37:06;;;;;;;9.00;2.17;;;;;;;-144.73;100.00;54491.84;5014039;28;20044;-72
2023/09/01 07:39:31;;;;;;;8.63;2.58;;;;;;;-144.73;100.00;54514.44;5014188;28;20033;-71
2023/09/01 07:41:57;;;;;;;6.15;2.95;;;;;;;-144.73;100.00;54473.38;5034132;28;20029;-73
2023/09/01 07:44:22;;;;;;;7.97;2.40;;;;;;;-144.73;100.00;54506.22;5017561;28;20033;-73
2023/09/01 07:46:47;;;;;;;11.18;3.38;;;;;;;-144.73;100.00;54510.31;5031613;28;20029;-72
2023/09/01 07:49:13;;;;;;;10.45;2.10;;;;;;;-144.73;100.00;54518.53;5013303;28;20021;-72
2023/09/01 07:51:38;;;;;;;11.27;3.03;;;;;;;-144.73;100.00;54493.91;5047297;28;20104;-72
2023/09/01 07:54:05;;;;;;;11.85;2.03;;;;;;;-144.73;100.00;54456.97;5013842;28;20109;-72
2023/09/01 07:56:32;;;;;;;10.40;2.67;;;;;;;-144.73;100.00;54522.63;5024130;28;20056;-72
2023/09/01 07:58:57;;;;;;;10.27;2.72;;;;;;;-144.73;100.00;54498.00;5014593;28;20071;-72
2023/09/01 08:01:23;;;;;;;12.18;2.55;;;;;;;-144.73;100.00;54510.31;5033048;28;20029;-73
2023/09/01 08:03:48;;;;;;;12.55;2.20;;;;;;;-144.73;100.00;54508.28;5033405;28;20021;-72
2023/09/01 08:06:13;;;;;;;12.02;2.63;;;;;;;-144.73;100.00;54516.47;5030985;28;20040;-72
2023/09/01 08:08:39;;;;;;;7.35;2.00;;;;;;;-144.73;100.00;54481.59;5022802;28;20021;-72
2023/09/01 08:11:04;;;;;;;8.48;2.40;;;;;;;-144.73;100.00;54481.59;5013377;28;20030;-72
2023/09/01 08:13:29;;;;;;;11.70;2.55;;;;;;;-144.73;100.00;54502.13;5014045;28;20027;-72
2023/09/01 08:15:55;;;;;;;9.18;1.88;;;;;;;-144.73;100.00;54498.00;5013372;28;20030;-73
2023/09/01 08:18:20;;;;;;;7.03;2.33;;;;;;;-144.73;100.00;54481.59;5019546;28;20083;-72
2023/09/01 08:20:46;;;;;;;8.23;2.38;;;;;;;-144.73;100.00;54444.66;5012782;28;20396;-72
2023/09/01 08:23:11;;;;;;;8.95;2.28;;;;;;;-144.73;100.00;54493.91;5013431;28;20021;-72
2023/09/01 08:25:37;;;;;;;10.13;2.33;;;;;;;-144.73;100.00;54502.13;5012860;28;20034;-72
2023/09/01 08:28:03;;;;;;;14.40;2.38;;;;;;;-144.73;100.00;54485.69;5014491;28;20029;-74
2023/09/01 08:30:29;;;;;;;7.15;2.40;;;;;;;-144.73;100.00;54504.16;5030689;28;20037;-71
2023/09/01 08:32:54;;;;;;;7.53;2.17;;;;;;;-144.73;100.00;54444.66;5033037;28;20029;-73
2023/09/01 08:35:20;;;;;;;16.63;3.05;;;;;;;-144.73;100.00;54456.97;5032907;28;20075;-71
2023/09/01 08:37:45;;;;;;;9.45;2.85;;;;;;;-144.73;100.00;54471.31;5038481;28;20060;-72
2023/09/01 08:40:11;;;;;;;8.75;2.45;;;;;;;-144.73;100.00;54493.91;5013065;28;20109;-73
2023/09/01 08:42:45;;;;;;;10.52;2.55;;;;;;;-144.73;100.00;54512.38;5013178;28;20122;-72
2023/09/01 08:45:11;;;;;;;9.70;2.10;;;;;;;-144.73;100.00;54483.66;5012598;28;20033;-72
2023/09/01 08:47:44;;;;;;;7.85;2.50;;;;;;;-144.73;100.00;54463.13;5014350;28;20108;-72
2023/09/01 08:50:09;;;;;;;7.80;1.98;;;;;;;-144.73;100.00;54498.00;5030217;28;20110;-73
2023/09/01 08:52:35;;;;;;;8.32;2.53;;;;;;;-144.73;100.00;54452.84;5013183;28;20110;-71
2023/09/01 08:55:01;;;;;;;9.38;1.98;;;;;;;-144.73;100.00;54448.75;5012338;28;20033;-72
2023/09/01 08:57:26;;;;;;;13.25;2.42;;;;;;;-144.73;100.00;54465.16;5031015;28;20036;-72
2023/09/01 08:59:52;;;;;;;9.73;2.13;;;;;;;-144.73;100.00;54475.44;5012038;28;20041;-72
2023/09/01 09:02:18;;;;;;;22.40;2.65;;;;;;;-144.73;100.00;54469.28;5012610;28;20022;-73
2023/09/01 09:04:43;;;;;;;9.77;2.00;;;;;;;-144.73;100.00;54456.97;5012395;28;20033;-72
2023/09/01 09:07:16;;;;;;;11.00;2.17;;;;;;;-144.73;100.00;54481.59;5030677;28;20029;-72
2023/09/01 09:10:08;;;;;;;7.20;2.40;;;;;;;-144.73;100.00;54456.97;5029411;28;20125;-72
2023/09/01 09:12:41;;;;;;;8.90;2.33;;;;;;;-144.73;100.00;54481.59;5008983;28;20095;-72
2023/09/01 09:15:08;;;;;;;9.45;2.75;;;;;;;-144.73;100.00;54463.13;5012381;28;20055;-72
2023/09/01 09:17:44;;;;;;;11.00;2.63;;;;;;;-144.73;100.00;54493.91;5012809;28;20025;-73
2023/09/01 09:20:11;;;;;;;12.52;2.28;;;;;;;-144.73;100.00;54498.00;5005846;28;20021;-73
2023/09/01 09:22:54;;;;;;;7.85;1.80;;;;;;;-144.73;100.00;54485.69;5043687;28;20029;-73
2023/09/01 09:25:30;;;;;;;6.95;2.53;;;;;;;-144.73;100.00;54459.00;5032301;28;20029;-73
2023/09/01 09:28:11;;;;;;;14.02;2.15;;;;;;;-144.73;100.00;54456.97;5050372;28;20036;-72
2023/09/01 09:30:36;;;;;;;9.98;2.38;;;;;;;-144.73;100.00;54467.22;5022851;28;20033;-72
2023/09/01 09:33:03;;;;;;;8.20;2.53;;;;;;;-144.73;100.00;54500.06;5049887;28;20032;-74
2023/09/01 09:35:28;;;;;;;12.02;2.33;;;;;;;-144.73;100.00;54440.53;5031664;28;20029;-73
2023/09/01 09:37:58;;;;;;;9.88;2.47;;;;;;;-144.73;100.00;54465.16;5032979;28;20028;-72
2023/09/01 09:40:23;;;;;;;8.43;2.03;;;;;;;-144.73;100.00;54469.28;5031764;28;20033;-72
2023/09/01 09:42:48;;;;;;;6.70;2.10;;;;;;;-144.73;100.00;54452.84;5032359;28;20029;-72
2023/09/01 09:45:24;;;;;;;8.80;2.13;;;;;;;-144.73;100.00;54465.16;5049764;28;20033;-72
2023/09/01 09:47:50;;;;;;;4.47;1.83;;;;;;;-144.73;100.00;54450.81;5049574;28;20074;-72
2023/09/01 09:50:17;;;;;;;12.30;1.70;;;;;;;-144.73;100.00;54432.31;5031384;28;20061;-72
2023/09/01 09:52:49;;;;;;;8.38;2.05;;;;;;;-144.73;100.00;54461.06;5033861;28;20060;-73
2023/09/01 09:55:19;;;;;;;;;;;;;;;-144.73;100.00;54450.81;5037129;28;20048;-72
2023/09/01 09:57:48;;;;;;;7.32;2.05;;;;;;;-144.73;100.00;54465.16;5036177;28;20351;-73
2023/09/01 10:00:14;;;;;;;7.90;1.70;;;;;;;-144.73;96.41;54436.44;5016281;28;20572;-73
2023/09/01 10:02:47;;;;;;;3.95;1.58;;;;;;;-144.73;95.12;54448.75;5027351;28;20100;-73
2023/09/01 10:05:15;;;;;;;7.22;1.70;;;;;;;-144.73;92.97;54473.38;5035091;28;20472;-73
2023/09/01 10:07:42;;;;;;;15.25;1.92;;;;;;;-144.73;90.57;54391.28;5020691;28;20499;-73
2023/09/01 10:10:08;;;;;;;5.50;1.67;;;;;;;-144.73;86.63;54465.16;5020197;28;20083;-75
2023/09/01 10:12:35;;;;;;;12.85;2.20;;;;;;;-144.73;85.45;54446.69;5028070;28;20108;-74
2023/09/01 10:15:03;;;;;;;4.47;1.38;;;;;;;-144.73;91.12;54424.13;5025611;28;20036;-74
2023/09/01 10:17:32;;;;;;;2.95;1.27;;;;;;;-144.73;84.70;54465.16;5015743;28;20044;-74
2023/09/01 10:19:59;;;;;;;7.43;1.50;;;;;;;-144.73;87.86;54444.66;5033451;28;20112;-74
2023/09/01 10:22:25;;;;;;;6.22;1.67;;;;;;;-144.73;85.71;54424.13;5019189;28;20029;-74
2023/09/01 10:25:15;;;;;;;6.15;1.10;;;;;;;-144.73;85.57;54428.22;5015024;28;20092;-76
2023/09/01 10:28:07;;;;;;;10.02;1.98;;;;;;;-144.73;81.79;54440.53;5027174;28;20083;-75
2023/09/01 10:30:35;;;;;;;7.13;1.63;;;;;;;-144.73;89.36;54452.84;5019684;28;20040;-74
2023/09/01 10:33:07;;;;;;;5.18;1.38;;;;;;;-144.73;86.63;54407.69;5041744;28;20021;-74
2023/09/01 10:35:36;;;;;;;5.88;1.55;;;;;;;-144.73;85.92;54498.00;5034796;28;20037;-75
2023/09/01 10:38:12;;;;;;;13.10;1.88;;;;;;;-144.73;88.59;54487.75;5035403;28;20036;-76
2023/09/01 10:40:45;;;;;;;8.68;1.70;;;;;;;-144.73;91.25;54489.81;5034565;28;20033;-75
2023/09/01 10:43:11;;;;;;;8.18;2.20;;;;;;;-144.73;94.17;54461.06;5035793;28;20021;-75
2023/09/01 10:45:38;;;;;;;7.53;1.70;;;;;;;-144.73;97.82;54461.06;5052017;28;20040;-73
2023/09/01 10:48:04;;;;;;;6.55;2.58;;;;;;;-144.73;93.74;54450.81;5039869;28;20037;-74
2023/09/01 10:50:34;;;;;;;4.72;2.00;;;;;;;-144.73;85.32;54370.75;5016410;28;20029;-73
2023/09/01 10:53:30;;;;;;;5.88;1.77;;;;;;;-144.73;89.54;54444.66;5015852;28;20045;-74
2023/09/01 10:56:05;;;;;;;8.98;2.45;;;;;;;-144.73;84.88;54450.81;5015232;28;20059;-75
2023/09/01 10:58:47;;;;;;;5.90;1.73;;;;;;;-144.73;86.51;54432.31;5016559;28;20029;-74
2023/09/01 11:01:25;;;;;;;8.00;1.50;;;;;;;-144.73;85.76;54452.84;5015231;28;20048;-74
2023/09/01 11:03:50;;;;;;;9.75;1.65;;;;;;;-144.73;86.08;54448.75;5018423;28;20033;-74